sensor_id;sensor_type;location;lat;lon;timestamp;P1;durP1;ratioP1;P2;durP2;ratioP2
65477;SDS011;53678;39.642;22.430;2024-03-23T00:53:47;14.90;;;8.90;;
65477;SDS011;53678;39.642;22.430;2024-03-23T00:56:13;16.27;;;8.23;;
65477;SDS011;53678;39.642;22.430;2024-03-23T00:58:38;17.20;;;8.70;;
65477;SDS011;53678;39.642;22.430;2024-03-23T01:01:04;12.23;;;7.80;;
65477;SDS011;53678;39.642;22.430;2024-03-23T01:03:30;15.40;;;8.02;;
65477;SDS011;53678;39.642;22.430;2024-03-23T01:06:02;14.27;;;7.95;;
65477;SDS011;53678;39.642;22.430;2024-03-23T01:08:31;13.18;;;7.72;;
65477;SDS011;53678;39.642;22.430;2024-03-23T01:10:57;16.15;;;8.57;;
65477;SDS011;53678;39.642;22.430;2024-03-23T01:13:24;17.15;;;8.32;;
65477;SDS011;53678;39.642;22.430;2024-03-23T01:15:50;12.32;;;7.15;;
65477;SDS011;53678;39.642;22.430;2024-03-23T01:18:17;16.98;;;8.73;;
65477;SDS011;53678;39.642;22.430;2024-03-23T01:20:43;16.23;;;9.95;;
65477;SDS011;53678;39.642;22.430;2024-03-23T01:23:10;23.75;;;13.25;;
65477;SDS011;53678;39.642;22.430;2024-03-23T01:25:35;18.00;;;9.93;;
65477;SDS011;53678;39.642;22.430;2024-03-23T01:28:01;15.95;;;9.98;;
65477;SDS011;53678;39.642;22.430;2024-03-23T01:30:27;13.65;;;8.77;;
65477;SDS011;53678;39.642;22.430;2024-03-23T01:32:53;14.43;;;8.88;;
65477;SDS011;53678;39.642;22.430;2024-03-23T01:35:18;16.20;;;9.25;;
65477;SDS011;53678;39.642;22.430;2024-03-23T01:37:44;12.23;;;8.23;;
65477;SDS011;53678;39.642;22.430;2024-03-23T01:40:10;13.85;;;9.43;;
65477;SDS011;53678;39.642;22.430;2024-03-23T01:42:38;19.48;;;10.20;;
65477;SDS011;53678;39.642;22.430;2024-03-23T01:45:08;18.20;;;9.95;;
65477;SDS011;53678;39.642;22.430;2024-03-23T01:47:37;14.82;;;9.40;;
65477;SDS011;53678;39.642;22.430;2024-03-23T01:50:03;16.33;;;9.88;;
65477;SDS011;53678;39.642;22.430;2024-03-23T01:52:30;15.98;;;9.95;;
65477;SDS011;53678;39.642;22.430;2024-03-23T01:54:55;17.40;;;9.38;;
65477;SDS011;53678;39.642;22.430;2024-03-23T01:57:21;16.38;;;9.70;;
65477;SDS011;53678;39.642;22.430;2024-03-23T01:59:48;18.65;;;10.10;;
65477;SDS011;53678;39.642;22.430;2024-03-23T02:02:22;16.58;;;9.73;;
65477;SDS011;53678;39.642;22.430;2024-03-23T02:04:48;18.88;;;10.13;;
65477;SDS011;53678;39.642;22.430;2024-03-23T02:07:14;19.55;;;10.70;;
65477;SDS011;53678;39.642;22.430;2024-03-23T02:09:40;18.60;;;11.43;;
65477;SDS011;53678;39.642;22.430;2024-03-23T02:12:05;22.30;;;12.50;;
65477;SDS011;53678;39.642;22.430;2024-03-23T02:14:32;21.63;;;12.25;;
65477;SDS011;53678;39.642;22.430;2024-03-23T02:16:58;21.83;;;11.55;;
65477;SDS011;53678;39.642;22.430;2024-03-23T02:19:24;20.65;;;12.00;;
65477;SDS011;53678;39.642;22.430;2024-03-23T02:21:49;23.35;;;12.52;;
65477;SDS011;53678;39.642;22.430;2024-03-23T02:24:15;21.17;;;13.07;;
65477;SDS011;53678;39.642;22.430;2024-03-23T02:26:40;24.90;;;13.57;;
65477;SDS011;53678;39.642;22.430;2024-03-23T02:29:06;22.00;;;12.65;;
65477;SDS011;53678;39.642;22.430;2024-03-23T02:31:33;21.65;;;12.25;;
65477;SDS011;53678;39.642;22.430;2024-03-23T02:33:59;20.45;;;11.75;;
65477;SDS011;53678;39.642;22.430;2024-03-23T02:36:25;22.02;;;14.07;;
65477;SDS011;53678;39.642;22.430;2024-03-23T02:38:51;23.08;;;12.48;;
65477;SDS011;53678;39.642;22.430;2024-03-23T02:41:17;25.80;;;12.65;;
65477;SDS011;53678;39.642;22.430;2024-03-23T02:43:50;24.15;;;13.73;;
65477;SDS011;53678;39.642;22.430;2024-03-23T02:46:16;22.65;;;12.65;;
65477;SDS011;53678;39.642;22.430;2024-03-23T02:48:42;20.48;;;13.15;;
65477;SDS011;53678;39.642;22.430;2024-03-23T02:51:08;22.48;;;12.55;;
65477;SDS011;53678;39.642;22.430;2024-03-23T02:53:34;28.13;;;15.07;;
65477;SDS011;53678;39.642;22.430;2024-03-23T02:56:00;24.17;;;13.23;;
65477;SDS011;53678;39.642;22.430;2024-03-23T02:58:25;21.67;;;14.57;;
65477;SDS011;53678;39.642;22.430;2024-03-23T03:00:51;22.00;;;14.48;;
65477;SDS011;53678;39.642;22.430;2024-03-23T03:03:17;23.00;;;14.25;;
65477;SDS011;53678;39.642;22.430;2024-03-23T03:05:43;25.80;;;14.88;;
65477;SDS011;53678;39.642;22.430;2024-03-23T03:08:08;27.33;;;14.05;;
65477;SDS011;53678;39.642;22.430;2024-03-23T03:10:34;21.10;;;12.88;;
65477;SDS011;53678;39.642;22.430;2024-03-23T03:13:01;24.73;;;13.25;;
65477;SDS011;53678;39.642;22.430;2024-03-23T03:15:27;22.38;;;12.77;;
65477;SDS011;53678;39.642;22.430;2024-03-23T03:17:53;18.95;;;12.10;;
65477;SDS011;53678;39.642;22.430;2024-03-23T03:20:19;19.98;;;12.38;;
65477;SDS011;53678;39.642;22.430;2024-03-23T03:22:47;21.95;;;12.13;;
65477;SDS011;53678;39.642;22.430;2024-03-23T03:25:12;20.30;;;11.95;;
65477;SDS011;53678;39.642;22.430;2024-03-23T03:27:38;19.67;;;11.93;;
65477;SDS011;53678;39.642;22.430;2024-03-23T03:30:04;17.42;;;11.38;;
65477;SDS011;53678;39.642;22.430;2024-03-23T03:32:32;17.10;;;10.85;;
65477;SDS011;53678;39.642;22.430;2024-03-23T03:34:58;20.80;;;12.30;;
65477;SDS011;53678;39.642;22.430;2024-03-23T03:37:24;19.65;;;12.88;;
65477;SDS011;53678;39.642;22.430;2024-03-23T03:39:50;22.90;;;12.45;;
65477;SDS011;53678;39.642;22.430;2024-03-23T03:42:16;16.58;;;10.63;;
65477;SDS011;53678;39.642;22.430;2024-03-23T03:44:41;27.48;;;12.35;;
65477;SDS011;53678;39.642;22.430;2024-03-23T03:47:07;19.15;;;11.20;;
65477;SDS011;53678;39.642;22.430;2024-03-23T03:49:33;20.67;;;11.40;;
65477;SDS011;53678;39.642;22.430;2024-03-23T03:51:59;19.45;;;11.23;;
65477;SDS011;53678;39.642;22.430;2024-03-23T03:54:26;24.60;;;10.80;;
65477;SDS011;53678;39.642;22.430;2024-03-23T03:56:52;21.70;;;11.30;;
65477;SDS011;53678;39.642;22.430;2024-03-23T03:59:18;14.75;;;10.30;;
65477;SDS011;53678;39.642;22.430;2024-03-23T04:01:44;15.63;;;9.32;;
65477;SDS011;53678;39.642;22.430;2024-03-23T04:04:10;18.50;;;10.30;;
65477;SDS011;53678;39.642;22.430;2024-03-23T04:06:36;17.88;;;10.23;;
65477;SDS011;53678;39.642;22.430;2024-03-23T04:09:03;18.13;;;10.60;;
65477;SDS011;53678;39.642;22.430;2024-03-23T04:11:29;16.73;;;9.60;;
65477;SDS011;53678;39.642;22.430;2024-03-23T04:13:55;15.77;;;9.23;;
65477;SDS011;53678;39.642;22.430;2024-03-23T04:16:34;18.98;;;10.30;;
65477;SDS011;53678;39.642;22.430;2024-03-23T04:19:00;21.75;;;10.45;;
65477;SDS011;53678;39.642;22.430;2024-03-23T04:21:26;18.75;;;10.40;;
65477;SDS011;53678;39.642;22.430;2024-03-23T04:23:52;18.02;;;9.98;;
65477;SDS011;53678;39.642;22.430;2024-03-23T04:26:18;21.70;;;11.18;;
65477;SDS011;53678;39.642;22.430;2024-03-23T04:28:44;19.90;;;12.15;;
65477;SDS011;53678;39.642;22.430;2024-03-23T04:31:09;31.33;;;14.13;;
65477;SDS011;53678;39.642;22.430;2024-03-23T04:33:35;36.95;;;14.55;;
65477;SDS011;53678;39.642;22.430;2024-03-23T04:36:01;27.85;;;13.25;;
65477;SDS011;53678;39.642;22.430;2024-03-23T04:38:28;26.85;;;14.25;;
65477;SDS011;53678;39.642;22.430;2024-03-23T04:40:57;20.42;;;11.88;;
65477;SDS011;53678;39.642;22.430;2024-03-23T04:43:23;22.85;;;12.23;;
65477;SDS011;53678;39.642;22.430;2024-03-23T04:45:50;23.38;;;12.43;;
65477;SDS011;53678;39.642;22.430;2024-03-23T04:48:16;20.38;;;12.32;;
65477;SDS011;53678;39.642;22.430;2024-03-23T04:50:42;23.63;;;12.27;;
65477;SDS011;53678;39.642;22.430;2024-03-23T04:53:08;25.20;;;12.32;;
65477;SDS011;53678;39.642;22.430;2024-03-23T04:55:33;22.50;;;11.23;;
65477;SDS011;53678;39.642;22.430;2024-03-23T04:57:59;17.77;;;10.27;;
65477;SDS011;53678;39.642;22.430;2024-03-23T05:00:26;21.05;;;11.45;;
65477;SDS011;53678;39.642;22.430;2024-03-23T05:02:51;22.70;;;10.95;;
65477;SDS011;53678;39.642;22.430;2024-03-23T05:05:18;17.98;;;10.20;;
65477;SDS011;53678;39.642;22.430;2024-03-23T05:07:44;20.58;;;10.82;;
65477;SDS011;53678;39.642;22.430;2024-03-23T05:10:09;15.00;;;10.27;;
65477;SDS011;53678;39.642;22.430;2024-03-23T05:12:36;21.73;;;10.27;;
65477;SDS011;53678;39.642;22.430;2024-03-23T05:15:04;17.60;;;10.93;;
65477;SDS011;53678;39.642;22.430;2024-03-23T05:17:31;25.65;;;11.90;;
65477;SDS011;53678;39.642;22.430;2024-03-23T05:19:57;16.58;;;11.20;;
65477;SDS011;53678;39.642;22.430;2024-03-23T05:22:22;21.75;;;12.93;;
65477;SDS011;53678;39.642;22.430;2024-03-23T05:24:48;15.75;;;11.13;;
65477;SDS011;53678;39.642;22.430;2024-03-23T05:27:14;19.75;;;11.02;;
65477;SDS011;53678;39.642;22.430;2024-03-23T05:29:40;15.65;;;10.77;;
65477;SDS011;53678;39.642;22.430;2024-03-23T05:32:06;22.15;;;11.27;;
65477;SDS011;53678;39.642;22.430;2024-03-23T05:34:32;19.90;;;11.80;;
65477;SDS011;53678;39.642;22.430;2024-03-23T05:36:58;18.50;;;11.82;;
65477;SDS011;53678;39.642;22.430;2024-03-23T05:39:24;22.15;;;11.38;;
65477;SDS011;53678;39.642;22.430;2024-03-23T05:41:50;16.90;;;10.63;;
65477;SDS011;53678;39.642;22.430;2024-03-23T05:44:16;16.95;;;11.07;;
65477;SDS011;53678;39.642;22.430;2024-03-23T05:46:42;15.38;;;9.88;;
65477;SDS011;53678;39.642;22.430;2024-03-23T05:49:13;16.73;;;9.52;;
65477;SDS011;53678;39.642;22.430;2024-03-23T05:51:40;12.80;;;9.65;;
65477;SDS011;53678;39.642;22.430;2024-03-23T05:54:06;16.45;;;9.38;;
65477;SDS011;53678;39.642;22.430;2024-03-23T05:56:32;19.77;;;9.82;;
65477;SDS011;53678;39.642;22.430;2024-03-23T05:58:58;16.38;;;10.35;;
65477;SDS011;53678;39.642;22.430;2024-03-23T06:01:23;20.85;;;10.07;;
65477;SDS011;53678;39.642;22.430;2024-03-23T06:03:49;17.35;;;11.10;;
65477;SDS011;53678;39.642;22.430;2024-03-23T06:06:15;20.50;;;11.05;;
65477;SDS011;53678;39.642;22.430;2024-03-23T06:08:41;15.30;;;10.43;;
65477;SDS011;53678;39.642;22.430;2024-03-23T06:11:06;13.10;;;10.18;;
65477;SDS011;53678;39.642;22.430;2024-03-23T06:13:32;13.02;;;9.70;;
65477;SDS011;53678;39.642;22.430;2024-03-23T06:15:59;17.35;;;10.75;;
65477;SDS011;53678;39.642;22.430;2024-03-23T06:18:26;17.77;;;11.40;;
65477;SDS011;53678;39.642;22.430;2024-03-23T06:20:52;20.27;;;10.85;;
65477;SDS011;53678;39.642;22.430;2024-03-23T06:23:17;19.17;;;11.30;;
65477;SDS011;53678;39.642;22.430;2024-03-23T06:25:45;16.02;;;11.25;;
65477;SDS011;53678;39.642;22.430;2024-03-23T06:28:11;16.80;;;11.40;;
65477;SDS011;53678;39.642;22.430;2024-03-23T06:30:37;23.75;;;10.82;;
65477;SDS011;53678;39.642;22.430;2024-03-23T06:33:03;15.57;;;10.73;;
65477;SDS011;53678;39.642;22.430;2024-03-23T06:35:31;13.25;;;10.05;;
65477;SDS011;53678;39.642;22.430;2024-03-23T06:37:57;15.93;;;10.25;;
65477;SDS011;53678;39.642;22.430;2024-03-23T06:40:23;22.35;;;12.85;;
65477;SDS011;53678;39.642;22.430;2024-03-23T06:42:49;18.73;;;11.38;;
65477;SDS011;53678;39.642;22.430;2024-03-23T06:45:16;17.88;;;11.40;;
65477;SDS011;53678;39.642;22.430;2024-03-23T06:47:44;17.15;;;11.45;;
65477;SDS011;53678;39.642;22.430;2024-03-23T06:50:10;18.65;;;11.85;;
65477;SDS011;53678;39.642;22.430;2024-03-23T06:52:36;19.60;;;11.68;;
65477;SDS011;53678;39.642;22.430;2024-03-23T06:55:02;19.92;;;13.13;;
65477;SDS011;53678;39.642;22.430;2024-03-23T06:57:29;19.23;;;12.25;;
65477;SDS011;53678;39.642;22.430;2024-03-23T06:59:55;20.52;;;11.63;;
65477;SDS011;53678;39.642;22.430;2024-03-23T07:02:21;19.42;;;11.25;;
65477;SDS011;53678;39.642;22.430;2024-03-23T07:04:47;24.80;;;10.45;;
65477;SDS011;53678;39.642;22.430;2024-03-23T07:07:12;20.85;;;13.10;;
65477;SDS011;53678;39.642;22.430;2024-03-23T07:09:38;22.38;;;12.70;;
65477;SDS011;53678;39.642;22.430;2024-03-23T07:12:04;16.60;;;9.18;;
65477;SDS011;53678;39.642;22.430;2024-03-23T07:14:30;20.10;;;10.32;;
65477;SDS011;53678;39.642;22.430;2024-03-23T07:16:56;16.35;;;8.50;;
65477;SDS011;53678;39.642;22.430;2024-03-23T07:19:22;15.93;;;8.05;;
65477;SDS011;53678;39.642;22.430;2024-03-23T07:21:48;14.38;;;9.05;;
65477;SDS011;53678;39.642;22.430;2024-03-23T07:24:14;12.55;;;7.53;;
65477;SDS011;53678;39.642;22.430;2024-03-23T07:26:40;11.90;;;7.45;;
65477;SDS011;53678;39.642;22.430;2024-03-23T07:29:06;11.95;;;7.93;;
65477;SDS011;53678;39.642;22.430;2024-03-23T07:31:32;14.48;;;6.70;;
65477;SDS011;53678;39.642;22.430;2024-03-23T07:33:58;9.82;;;5.90;;
65477;SDS011;53678;39.642;22.430;2024-03-23T07:36:23;10.75;;;5.90;;
65477;SDS011;53678;39.642;22.430;2024-03-23T07:38:50;9.55;;;6.07;;
65477;SDS011;53678;39.642;22.430;2024-03-23T07:41:17;11.32;;;5.50;;
65477;SDS011;53678;39.642;22.430;2024-03-23T07:43:44;9.38;;;5.65;;
65477;SDS011;53678;39.642;22.430;2024-03-23T07:46:10;14.55;;;5.53;;
65477;SDS011;53678;39.642;22.430;2024-03-23T07:48:37;9.60;;;5.63;;
65477;SDS011;53678;39.642;22.430;2024-03-23T07:51:04;9.27;;;5.88;;
65477;SDS011;53678;39.642;22.430;2024-03-23T07:53:33;8.10;;;5.00;;
65477;SDS011;53678;39.642;22.430;2024-03-23T07:56:04;6.75;;;4.50;;
65477;SDS011;53678;39.642;22.430;2024-03-23T07:58:31;6.95;;;4.47;;
65477;SDS011;53678;39.642;22.430;2024-03-23T08:01:03;10.65;;;4.90;;
65477;SDS011;53678;39.642;22.430;2024-03-23T08:03:33;7.60;;;4.50;;
65477;SDS011;53678;39.642;22.430;2024-03-23T08:06:33;11.55;;;3.92;;
65477;SDS011;53678;39.642;22.430;2024-03-23T08:08:52;5.82;;;4.05;;
65477;SDS011;53678;39.642;22.430;2024-03-23T08:11:27;7.68;;;3.97;;
65477;SDS011;53678;39.642;22.430;2024-03-23T08:13:57;13.40;;;4.72;;
65477;SDS011;53678;39.642;22.430;2024-03-23T08:16:23;8.82;;;4.10;;
65477;SDS011;53678;39.642;22.430;2024-03-23T08:18:51;7.13;;;4.70;;
65477;SDS011;53678;39.642;22.430;2024-03-23T08:21:17;8.38;;;4.43;;
65477;SDS011;53678;39.642;22.430;2024-03-23T08:23:43;10.18;;;5.60;;
65477;SDS011;53678;39.642;22.430;2024-03-23T08:26:10;9.50;;;5.22;;
65477;SDS011;53678;39.642;22.430;2024-03-23T08:28:37;10.65;;;4.70;;
65477;SDS011;53678;39.642;22.430;2024-03-23T08:31:12;10.10;;;4.90;;
65477;SDS011;53678;39.642;22.430;2024-03-23T08:33:38;8.63;;;4.80;;
65477;SDS011;53678;39.642;22.430;2024-03-23T08:36:06;8.40;;;5.35;;
65477;SDS011;53678;39.642;22.430;2024-03-23T08:38:33;6.70;;;5.03;;
65477;SDS011;53678;39.642;22.430;2024-03-23T08:40:59;8.35;;;5.60;;
65477;SDS011;53678;39.642;22.430;2024-03-23T08:43:30;9.93;;;5.75;;
65477;SDS011;53678;39.642;22.430;2024-03-23T08:46:05;7.80;;;5.45;;
65477;SDS011;53678;39.642;22.430;2024-03-23T08:48:32;8.50;;;5.82;;
65477;SDS011;53678;39.642;22.430;2024-03-23T08:51:05;7.10;;;5.20;;
65477;SDS011;53678;39.642;22.430;2024-03-23T08:53:33;10.65;;;5.25;;
65477;SDS011;53678;39.642;22.430;2024-03-23T08:55:59;9.10;;;5.35;;
65477;SDS011;53678;39.642;22.430;2024-03-23T08:58:29;7.13;;;4.68;;
65477;SDS011;53678;39.642;22.430;2024-03-23T09:00:56;11.15;;;4.90;;
65477;SDS011;53678;39.642;22.430;2024-03-23T09:03:23;8.60;;;4.88;;
65477;SDS011;53678;39.642;22.430;2024-03-23T09:05:52;7.65;;;5.00;;
65477;SDS011;53678;39.642;22.430;2024-03-23T09:08:18;12.48;;;4.93;;
65477;SDS011;53678;39.642;22.430;2024-03-23T09:10:45;11.38;;;5.88;;
65477;SDS011;53678;39.642;22.430;2024-03-23T09:13:12;8.80;;;6.00;;
65477;SDS011;53678;39.642;22.430;2024-03-23T09:15:45;9.15;;;5.35;;
65477;SDS011;53678;39.642;22.430;2024-03-23T09:18:12;9.77;;;5.22;;
65477;SDS011;53678;39.642;22.430;2024-03-23T09:20:38;8.55;;;5.30;;
65477;SDS011;53678;39.642;22.430;2024-03-23T09:23:04;10.52;;;5.53;;
65477;SDS011;53678;39.642;22.430;2024-03-23T09:25:29;11.13;;;5.45;;
65477;SDS011;53678;39.642;22.430;2024-03-23T09:27:55;10.60;;;5.95;;
65477;SDS011;53678;39.642;22.430;2024-03-23T09:30:22;7.80;;;5.38;;
65477;SDS011;53678;39.642;22.430;2024-03-23T09:32:50;10.18;;;5.15;;
65477;SDS011;53678;39.642;22.430;2024-03-23T09:35:16;8.07;;;4.80;;
65477;SDS011;53678;39.642;22.430;2024-03-23T09:37:41;8.45;;;5.38;;
65477;SDS011;53678;39.642;22.430;2024-03-23T09:40:10;7.32;;;5.28;;
65477;SDS011;53678;39.642;22.430;2024-03-23T09:42:37;9.35;;;5.50;;
65477;SDS011;53678;39.642;22.430;2024-03-23T09:45:06;9.50;;;5.45;;
65477;SDS011;53678;39.642;22.430;2024-03-23T09:47:42;13.18;;;5.25;;
65477;SDS011;53678;39.642;22.430;2024-03-23T09:50:08;7.88;;;4.82;;
65477;SDS011;53678;39.642;22.430;2024-03-23T09:52:35;10.82;;;4.70;;
65477;SDS011;53678;39.642;22.430;2024-03-23T09:55:00;10.85;;;5.07;;
65477;SDS011;53678;39.642;22.430;2024-03-23T09:57:26;7.22;;;5.20;;
65477;SDS011;53678;39.642;22.430;2024-03-23T09:59:52;9.77;;;5.32;;
65477;SDS011;53678;39.642;22.430;2024-03-23T10:02:20;7.95;;;4.50;;
65477;SDS011;53678;39.642;22.430;2024-03-23T10:04:46;7.22;;;4.60;;
65477;SDS011;53678;39.642;22.430;2024-03-23T10:07:15;7.28;;;4.40;;
65477;SDS011;53678;39.642;22.430;2024-03-23T10:09:45;8.02;;;4.88;;
65477;SDS011;53678;39.642;22.430;2024-03-23T10:12:17;7.63;;;5.30;;
65477;SDS011;53678;39.642;22.430;2024-03-23T10:14:44;7.82;;;5.30;;
65477;SDS011;53678;39.642;22.430;2024-03-23T10:17:17;9.48;;;4.53;;
65477;SDS011;53678;39.642;22.430;2024-03-23T10:19:48;8.40;;;5.00;;
65477;SDS011;53678;39.642;22.430;2024-03-23T10:22:17;10.02;;;4.45;;
65477;SDS011;53678;39.642;22.430;2024-03-23T10:24:47;8.00;;;5.10;;
65477;SDS011;53678;39.642;22.430;2024-03-23T10:27:20;7.15;;;4.60;;
65477;SDS011;53678;39.642;22.430;2024-03-23T10:29:50;7.95;;;4.60;;
65477;SDS011;53678;39.642;22.430;2024-03-23T10:32:16;8.43;;;4.75;;
65477;SDS011;53678;39.642;22.430;2024-03-23T10:34:43;9.18;;;4.60;;
65477;SDS011;53678;39.642;22.430;2024-03-23T10:37:09;6.15;;;3.67;;
65477;SDS011;53678;39.642;22.430;2024-03-23T10:39:39;6.35;;;4.10;;
65477;SDS011;53678;39.642;22.430;2024-03-23T10:42:06;7.63;;;4.20;;
65477;SDS011;53678;39.642;22.430;2024-03-23T10:44:34;7.78;;;4.88;;
65477;SDS011;53678;39.642;22.430;2024-03-23T10:47:00;13.50;;;4.15;;
65477;SDS011;53678;39.642;22.430;2024-03-23T10:49:31;8.68;;;4.38;;
65477;SDS011;53678;39.642;22.430;2024-03-23T10:52:04;9.40;;;4.32;;
65477;SDS011;53678;39.642;22.430;2024-03-23T10:54:31;12.40;;;7.45;;
65477;SDS011;53678;39.642;22.430;2024-03-23T10:57:12;9.13;;;4.82;;
65477;SDS011;53678;39.642;22.430;2024-03-23T10:59:42;6.05;;;3.90;;
65477;SDS011;53678;39.642;22.430;2024-03-23T11:02:20;11.30;;;4.15;;
65477;SDS011;53678;39.642;22.430;2024-03-23T11:04:47;8.27;;;4.07;;
65477;SDS011;53678;39.642;22.430;2024-03-23T11:07:31;5.75;;;3.90;;
65477;SDS011;53678;39.642;22.430;2024-03-23T11:09:58;11.90;;;3.92;;
65477;SDS011;53678;39.642;22.430;2024-03-23T11:12:29;8.80;;;4.25;;
65477;SDS011;53678;39.642;22.430;2024-03-23T11:17:30;7.43;;;4.20;;
65477;SDS011;53678;39.642;22.430;2024-03-23T11:19:57;6.20;;;4.05;;
65477;SDS011;53678;39.642;22.430;2024-03-23T11:22:45;6.90;;;3.83;;
65477;SDS011;53678;39.642;22.430;2024-03-23T11:25:21;8.43;;;4.22;;
65477;SDS011;53678;39.642;22.430;2024-03-23T11:27:58;5.35;;;3.47;;
65477;SDS011;53678;39.642;22.430;2024-03-23T11:30:36;7.07;;;4.28;;
65477;SDS011;53678;39.642;22.430;2024-03-23T11:33:05;8.80;;;4.72;;
65477;SDS011;53678;39.642;22.430;2024-03-23T11:35:38;5.60;;;3.90;;
65477;SDS011;53678;39.642;22.430;2024-03-23T11:40:37;9.82;;;3.70;;
65477;SDS011;53678;39.642;22.430;2024-03-23T11:43:08;8.20;;;3.78;;
65477;SDS011;53678;39.642;22.430;2024-03-23T11:45:43;9.13;;;4.88;;
65477;SDS011;53678;39.642;22.430;2024-03-23T11:48:15;7.63;;;3.80;;
65477;SDS011;53678;39.642;22.430;2024-03-23T11:50:44;8.30;;;3.72;;
65477;SDS011;53678;39.642;22.430;2024-03-23T11:55:53;7.68;;;4.45;;
65477;SDS011;53678;39.642;22.430;2024-03-23T11:58:22;7.78;;;3.90;;
65477;SDS011;53678;39.642;22.430;2024-03-23T12:01:01;6.53;;;3.92;;
65477;SDS011;53678;39.642;22.430;2024-03-23T12:03:29;10.65;;;5.43;;
65477;SDS011;53678;39.642;22.430;2024-03-23T12:06:00;12.52;;;6.15;;
65477;SDS011;53678;39.642;22.430;2024-03-23T12:08:39;7.10;;;4.13;;
65477;SDS011;53678;39.642;22.430;2024-03-23T12:11:09;6.95;;;4.00;;
65477;SDS011;53678;39.642;22.430;2024-03-23T12:13:40;6.93;;;4.05;;
65477;SDS011;53678;39.642;22.430;2024-03-23T12:16:18;6.45;;;4.50;;
65477;SDS011;53678;39.642;22.430;2024-03-23T12:18:51;12.88;;;5.85;;
65477;SDS011;53678;39.642;22.430;2024-03-23T12:21:17;7.18;;;4.30;;
65477;SDS011;53678;39.642;22.430;2024-03-23T12:23:43;8.98;;;4.50;;
65477;SDS011;53678;39.642;22.430;2024-03-23T12:26:10;5.95;;;3.58;;
65477;SDS011;53678;39.642;22.430;2024-03-23T12:28:38;7.95;;;4.00;;
65477;SDS011;53678;39.642;22.430;2024-03-23T12:31:04;6.05;;;3.70;;
65477;SDS011;53678;39.642;22.430;2024-03-23T12:33:31;8.65;;;4.72;;
65477;SDS011;53678;39.642;22.430;2024-03-23T12:35:57;9.77;;;5.45;;
65477;SDS011;53678;39.642;22.430;2024-03-23T12:38:31;6.85;;;3.72;;
65477;SDS011;53678;39.642;22.430;2024-03-23T12:41:03;8.32;;;5.32;;
65477;SDS011;53678;39.642;22.430;2024-03-23T12:43:30;6.97;;;3.90;;
65477;SDS011;53678;39.642;22.430;2024-03-23T12:45:56;7.32;;;4.07;;
65477;SDS011;53678;39.642;22.430;2024-03-23T12:48:21;6.50;;;4.07;;
65477;SDS011;53678;39.642;22.430;2024-03-23T12:50:47;5.47;;;3.72;;
65477;SDS011;53678;39.642;22.430;2024-03-23T12:53:13;8.00;;;4.30;;
65477;SDS011;53678;39.642;22.430;2024-03-23T12:55:38;6.75;;;3.90;;
65477;SDS011;53678;39.642;22.430;2024-03-23T12:58:04;5.20;;;3.30;;
65477;SDS011;53678;39.642;22.430;2024-03-23T13:00:30;9.77;;;6.07;;
65477;SDS011;53678;39.642;22.430;2024-03-23T13:02:55;8.73;;;5.22;;
65477;SDS011;53678;39.642;22.430;2024-03-23T13:05:21;8.50;;;3.92;;
65477;SDS011;53678;39.642;22.430;2024-03-23T13:07:47;8.18;;;4.07;;
65477;SDS011;53678;39.642;22.430;2024-03-23T13:10:12;6.72;;;4.70;;
65477;SDS011;53678;39.642;22.430;2024-03-23T13:12:41;8.63;;;3.85;;
65477;SDS011;53678;39.642;22.430;2024-03-23T13:15:08;5.40;;;3.10;;
65477;SDS011;53678;39.642;22.430;2024-03-23T13:17:34;6.45;;;3.53;;
65477;SDS011;53678;39.642;22.430;2024-03-23T13:19:59;5.32;;;3.38;;
65477;SDS011;53678;39.642;22.430;2024-03-23T13:22:25;6.18;;;3.88;;
65477;SDS011;53678;39.642;22.430;2024-03-23T13:24:51;6.53;;;3.30;;
65477;SDS011;53678;39.642;22.430;2024-03-23T13:27:16;5.63;;;3.33;;
65477;SDS011;53678;39.642;22.430;2024-03-23T13:29:42;7.63;;;3.83;;
65477;SDS011;53678;39.642;22.430;2024-03-23T13:32:08;8.75;;;4.40;;
65477;SDS011;53678;39.642;22.430;2024-03-23T13:34:34;8.45;;;3.83;;
65477;SDS011;53678;39.642;22.430;2024-03-23T13:37:00;13.85;;;7.63;;
65477;SDS011;53678;39.642;22.430;2024-03-23T13:39:26;10.38;;;5.55;;
65477;SDS011;53678;39.642;22.430;2024-03-23T13:41:55;5.32;;;3.65;;
65477;SDS011;53678;39.642;22.430;2024-03-23T13:44:21;8.88;;;3.30;;
65477;SDS011;53678;39.642;22.430;2024-03-23T13:46:47;6.90;;;3.70;;
65477;SDS011;53678;39.642;22.430;2024-03-23T13:49:29;6.82;;;3.30;;
65477;SDS011;53678;39.642;22.430;2024-03-23T13:51:56;6.88;;;3.75;;
65477;SDS011;53678;39.642;22.430;2024-03-23T13:54:25;11.43;;;4.97;;
65477;SDS011;53678;39.642;22.430;2024-03-23T13:56:52;8.88;;;3.60;;
65477;SDS011;53678;39.642;22.430;2024-03-23T13:59:19;7.65;;;3.90;;
65477;SDS011;53678;39.642;22.430;2024-03-23T14:01:46;5.40;;;3.33;;
65477;SDS011;53678;39.642;22.430;2024-03-23T14:04:12;5.65;;;3.72;;
65477;SDS011;53678;39.642;22.430;2024-03-23T14:06:39;5.53;;;3.38;;
65477;SDS011;53678;39.642;22.430;2024-03-23T14:09:05;5.60;;;3.83;;
65477;SDS011;53678;39.642;22.430;2024-03-23T14:11:34;6.20;;;3.63;;
65477;SDS011;53678;39.642;22.430;2024-03-23T14:14:02;6.78;;;3.97;;
65477;SDS011;53678;39.642;22.430;2024-03-23T14:16:29;5.15;;;3.83;;
65477;SDS011;53678;39.642;22.430;2024-03-23T14:18:55;7.43;;;3.60;;
65477;SDS011;53678;39.642;22.430;2024-03-23T14:21:21;6.65;;;3.90;;
65477;SDS011;53678;39.642;22.430;2024-03-23T14:23:47;10.27;;;4.43;;
65477;SDS011;53678;39.642;22.430;2024-03-23T14:26:12;5.63;;;3.40;;
65477;SDS011;53678;39.642;22.430;2024-03-23T14:28:38;5.80;;;3.70;;
65477;SDS011;53678;39.642;22.430;2024-03-23T14:31:04;5.88;;;3.42;;
65477;SDS011;53678;39.642;22.430;2024-03-23T14:33:36;8.75;;;3.45;;
65477;SDS011;53678;39.642;22.430;2024-03-23T14:36:11;6.70;;;3.53;;
65477;SDS011;53678;39.642;22.430;2024-03-23T14:38:36;5.95;;;3.30;;
65477;SDS011;53678;39.642;22.430;2024-03-23T14:41:02;5.65;;;3.50;;
65477;SDS011;53678;39.642;22.430;2024-03-23T14:43:29;7.82;;;3.67;;
65477;SDS011;53678;39.642;22.430;2024-03-23T14:46:08;4.40;;;3.17;;
65477;SDS011;53678;39.642;22.430;2024-03-23T14:48:34;9.75;;;3.75;;
65477;SDS011;53678;39.642;22.430;2024-03-23T14:51:00;5.05;;;3.30;;
65477;SDS011;53678;39.642;22.430;2024-03-23T14:53:26;4.32;;;3.00;;
65477;SDS011;53678;39.642;22.430;2024-03-23T14:55:56;6.63;;;3.33;;
65477;SDS011;53678;39.642;22.430;2024-03-23T14:58:22;4.20;;;2.83;;
65477;SDS011;53678;39.642;22.430;2024-03-23T15:00:51;5.97;;;3.42;;
65477;SDS011;53678;39.642;22.430;2024-03-23T15:03:17;10.65;;;4.75;;
65477;SDS011;53678;39.642;22.430;2024-03-23T15:05:56;5.20;;;3.55;;
65477;SDS011;53678;39.642;22.430;2024-03-23T15:08:23;6.90;;;3.33;;
65477;SDS011;53678;39.642;22.430;2024-03-23T15:10:49;6.80;;;3.90;;
65477;SDS011;53678;39.642;22.430;2024-03-23T15:13:15;3.95;;;2.95;;
65477;SDS011;53678;39.642;22.430;2024-03-23T15:15:41;6.40;;;3.17;;
65477;SDS011;53678;39.642;22.430;2024-03-23T15:18:13;4.55;;;3.00;;
65477;SDS011;53678;39.642;22.430;2024-03-23T15:20:54;8.70;;;3.45;;
65477;SDS011;53678;39.642;22.430;2024-03-23T15:23:20;5.05;;;3.38;;
65477;SDS011;53678;39.642;22.430;2024-03-23T15:25:53;6.25;;;3.60;;